Time;durP1;ratioP1;P1;durP2;ratioP2;P2;SDS_P1;SDS_P2;PMS_P1;PMS_P2;Temp;Humidity;BMP_temperature;BMP_pressure;BME280_temperature;BME280_humidity;BME280_pressure;Samples;Min_cycle;Max_cycle;Signal;HPM_P1;HPM_P2
2023/07/07 00:02:23;;;;;;;2.25;2.25;;;;;;;21.60;90.84;96708.25;4984075;28;20064;-69
2023/07/07 00:04:51;;;;;;;2.20;2.20;;;;;;;21.88;91.66;96758.13;4984028;28;20058;-69
2023/07/07 00:07:18;;;;;;;2.20;2.20;;;;;;;21.97;91.57;96754.63;4984578;28;20509;-69
2023/07/07 00:09:44;;;;;;;2.10;2.10;;;;;;;21.69;91.59;96716.00;4982963;28;20050;-69
2023/07/07 00:12:13;;;;;;;1.95;1.95;;;;;;;22.12;89.86;96765.00;4984629;28;20516;-69
2023/07/07 00:14:40;;;;;;;2.08;2.08;;;;;;;21.87;89.67;96727.56;4984505;28;20054;-69
2023/07/07 00:17:07;;;;;;;2.50;2.40;;;;;;;21.95;90.25;96746.63;4987234;28;20078;-70
2023/07/07 00:19:33;;;;;;;2.25;2.25;;;;;;;21.97;90.48;96749.78;4986512;28;20061;-68
2023/07/07 00:22:06;;;;;;;2.13;2.13;;;;;;;21.91;90.30;96751.59;4988269;28;20054;-69
2023/07/07 00:24:34;;;;;;;2.40;2.30;;;;;;;21.86;90.26;96723.94;4988487;28;20072;-69
2023/07/07 00:27:02;;;;;;;2.10;2.10;;;;;;;21.97;90.22;96752.59;4986317;28;20500;-69
2023/07/07 00:29:29;;;;;;;2.00;2.00;;;;;;;21.95;88.95;96734.53;4986968;28;20066;-69
2023/07/07 00:31:55;;;;;;;2.10;2.10;;;;;;;21.77;89.50;96728.69;4988236;28;20050;-69
2023/07/07 00:34:22;;;;;;;2.13;2.13;;;;;;;21.24;90.49;96668.31;4986496;28;20054;-69
2023/07/07 00:36:49;;;;;;;2.13;2.13;;;;;;;21.56;90.91;96718.81;4987468;28;20076;-69
2023/07/07 00:39:15;;;;;;;2.28;2.28;;;;;;;21.40;90.83;96693.59;4987967;28;20066;-70
2023/07/07 00:41:42;;;;;;;2.55;2.45;;;;;;;21.55;90.48;96727.75;4987948;28;20059;-69
2023/07/07 00:44:11;;;;;;;2.20;2.20;;;;;;;21.55;90.76;96734.19;4987813;28;20517;-70
2023/07/07 00:46:39;;;;;;;2.15;2.15;;;;;;;21.38;93.49;96760.88;4987927;28;20105;-69
2023/07/07 00:49:13;;;;;;;2.17;2.17;;;;;;;20.61;93.71;96647.66;4987717;28;20112;-69
2023/07/07 00:51:43;;;;;;;2.10;2.10;;;;;;;21.27;94.04;96768.84;4987838;28;20134;-69
2023/07/07 00:54:16;;;;;;;2.15;2.15;;;;;;;21.06;92.95;96707.50;4987774;28;20046;-70
2023/07/07 00:56:48;;;;;;;2.22;2.22;;;;;;;21.16;94.38;96745.84;4987568;28;20097;-70
2023/07/07 00:59:43;;;;;;;1.98;1.98;;;;;;;21.29;94.25;96749.47;4986282;28;20080;-69
2023/07/07 01:02:13;;;;;;;2.13;2.13;;;;;;;20.84;93.51;96678.34;4985191;28;20065;-69
2023/07/07 01:04:49;;;;;;;2.00;2.00;;;;;;;20.91;96.71;96757.00;4987192;28;20513;-69
2023/07/07 01:07:22;;;;;;;1.90;1.90;;;;;;;20.94;95.42;96733.56;4987813;28;20058;-68
2023/07/07 01:09:49;;;;;;;2.03;2.03;;;;;;;20.67;95.58;96707.81;4987396;28;20356;-68
2023/07/07 01:12:16;;;;;;;1.90;1.90;;;;;;;20.79;97.19;96727.56;4987163;28;20050;-68
2023/07/07 01:14:45;;;;;;;2.00;2.00;;;;;;;20.24;97.32;96651.09;4985649;28;20426;-68
2023/07/07 01:17:37;;;;;;;1.95;1.95;;;;;;;20.95;97.55;96752.03;4986841;28;20364;-69
2023/07/07 01:20:34;;;;;;;1.77;1.77;;;;;;;21.03;96.82;96753.47;4987157;28;20058;-68
2023/07/07 01:23:14;;;;;;;2.30;2.30;;;;;;;20.79;97.84;96733.19;4986837;28;20077;-68
2023/07/07 01:26:02;;;;;;;2.10;2.10;;;;;;;21.00;97.58;96751.53;4986989;28;20086;-69
2023/07/07 01:29:03;;;;;;;1.90;1.90;;;;;;;21.11;95.16;96754.84;4987082;28;20120;-69
2023/07/07 01:31:40;;;;;;;1.90;1.90;;;;;;;20.98;95.40;96751.19;4985565;28;20065;-68
2023/07/07 01:34:10;;;;;;;2.10;2.10;;;;;;;20.65;95.08;96711.06;4987078;28;20046;-68
2023/07/07 01:36:37;;;;;;;1.92;1.92;;;;;;;20.51;96.41;96717.06;4984992;28;20141;-68
2023/07/07 01:39:05;;;;;;;2.00;2.00;;;;;;;20.48;96.35;96705.91;4986545;28;20146;-68
2023/07/07 01:41:39;;;;;;;2.08;2.08;;;;;;;20.74;96.87;96752.63;4986681;28;20141;-69
2023/07/07 01:44:16;;;;;;;;;;;;;;;20.71;97.16;96753.50;4986142;28;20047;-69
2023/07/07 01:46:46;;;;;;;2.10;2.10;;;;;;;20.61;98.35;96754.63;4986325;28;20345;-68
2023/07/07 01:49:19;;;;;;;2.00;2.00;;;;;;;20.51;97.97;96721.91;4986781;28;20065;-68
2023/07/07 01:51:54;;;;;;;2.00;2.00;;;;;;;20.10;96.65;96663.50;4985261;28;20893;-68
2023/07/07 01:54:22;;;;;;;2.22;2.22;;;;;;;20.76;96.35;96767.06;4985135;28;20059;-70
2023/07/07 01:56:50;;;;;;;1.90;1.90;;;;;;;20.37;96.74;96696.97;4986342;28;20064;-69
2023/07/07 01:59:17;;;;;;;2.20;2.20;;;;;;;20.79;96.51;96754.91;4986457;28;20085;-69
2023/07/07 02:01:44;;;;;;;2.08;2.08;;;;;;;20.80;95.95;96750.88;4986500;28;20108;-68
2023/07/07 02:04:11;;;;;;;2.03;2.03;;;;;;;20.51;95.87;96694.56;4985189;28;20051;-69
2023/07/07 02:06:38;;;;;;;2.00;2.00;;;;;;;20.59;94.92;96695.16;4986100;28;20425;-69
2023/07/07 02:09:04;;;;;;;1.90;1.90;;;;;;;20.20;100.00;96762.94;4985111;28;20077;-69
2023/07/07 02:11:31;;;;;;;2.00;2.00;;;;;;;19.79;100.00;96714.91;4986263;28;20050;-69
2023/07/07 02:13:58;;;;;;;1.98;1.98;;;;;;;19.25;100.00;96656.34;4986703;28;20054;-69
2023/07/07 02:16:24;;;;;;;2.00;2.00;;;;;;;19.68;100.00;96742.50;4985789;28;20630;-68
2023/07/07 02:18:51;;;;;;;1.83;1.83;;;;;;;19.74;100.00;96688.13;4986100;28;20057;-69
2023/07/07 02:21:19;;;;;;;1.98;1.98;;;;;;;20.19;100.00;96738.81;4986288;28;20054;-69
2023/07/07 02:23:46;;;;;;;2.03;2.03;;;;;;;20.31;100.00;96746.56;4986348;28;20113;-68
2023/07/07 02:26:19;;;;;;;1.90;1.90;;;;;;;20.17;98.79;96707.56;4986142;28;20066;-69
2023/07/07 02:28:46;;;;;;;1.85;1.85;;;;;;;20.16;98.79;96703.16;4984867;28;20058;-69
2023/07/07 02:31:13;;;;;;;2.10;2.10;;;;;;;20.21;99.04;96730.75;4985945;28;20505;-69
2023/07/07 02:33:40;;;;;;;1.73;1.73;;;;;;;19.58;98.27;96638.31;4986038;28;20050;-69
2023/07/07 02:36:09;;;;;;;2.20;2.20;;;;;;;20.13;98.02;96706.81;4985615;28;20062;-69
2023/07/07 02:38:36;;;;;;;2.00;2.00;;;;;;;20.00;97.13;96711.56;4984240;28;20050;-68
2023/07/07 02:41:03;;;;;;;1.88;1.88;;;;;;;20.21;96.58;96719.50;4985505;28;20063;-69
2023/07/07 02:43:30;;;;;;;2.10;2.10;;;;;;;19.99;97.16;96684.69;4986108;28;20050;-69
2023/07/07 02:45:56;;;;;;;1.95;1.95;;;;;;;18.88;97.01;96499.59;4985678;28;20117;-69
2023/07/07 02:48:23;;;;;;;2.10;2.10;;;;;;;20.24;96.87;96701.72;4985386;28;20125;-69
2023/07/07 02:51:01;;;;;;;2.28;2.28;;;;;;;20.38;95.88;96735.13;4985353;28;20136;-69
2023/07/07 02:53:31;;;;;;;1.83;1.83;;;;;;;19.86;96.29;96670.53;4986308;28;20538;-69
2023/07/07 02:55:58;;;;;;;1.90;1.90;;;;;;;19.92;99.84;96760.75;4984088;28;20073;-70
2023/07/07 02:58:25;;;;;;;1.90;1.90;;;;;;;19.88;100.00;96743.19;4986238;28;20076;-69
2023/07/07 03:00:52;;;;;;;2.00;2.00;;;;;;;19.87;99.62;96703.03;4985528;28;20077;-69
2023/07/07 03:03:21;;;;;;;1.90;1.90;;;;;;;20.31;98.17;96755.00;4985345;28;20046;-69
2023/07/07 03:05:48;;;;;;;1.70;1.70;;;;;;;19.48;100.00;96734.91;4984122;28;20058;-69
2023/07/07 03:08:14;;;;;;;1.73;1.73;;;;;;;18.88;100.00;96729.75;4983922;28;20477;-69
2023/07/07 03:10:41;;;;;;;2.10;2.10;;;;;;;19.13;100.00;96679.50;4985088;28;20050;-69
2023/07/07 03:13:08;;;;;;;1.90;1.90;;;;;;;19.37;100.00;96695.03;4985038;28;20525;-68
2023/07/07 03:15:41;;;;;;;1.88;1.88;;;;;;;19.93;100.00;96754.72;4985031;28;20092;-69
2023/07/07 03:18:09;;;;;;;1.95;1.95;;;;;;;19.91;99.04;96747.94;4985044;28;20046;-69
2023/07/07 03:20:37;;;;;;;1.92;1.92;;;;;;;20.08;97.19;96755.16;4984523;28;20050;-69
2023/07/07 03:23:04;;;;;;;1.95;1.95;;;;;;;20.01;96.52;96730.03;4984698;28;20539;-69
2023/07/07 03:25:30;;;;;;;1.60;1.60;;;;;;;20.15;97.07;96755.81;4984750;28;20136;-69
2023/07/07 03:27:57;;;;;;;1.90;1.90;;;;;;;20.31;96.03;96749.38;4983560;28;20046;-68
2023/07/07 03:30:25;;;;;;;1.90;1.90;;;;;;;19.97;95.50;96692.75;4984785;28;20113;-69
2023/07/07 03:32:52;;;;;;;2.00;2.00;;;;;;;20.45;95.45;96788.41;4983198;28;20054;-69
2023/07/07 03:35:19;;;;;;;1.95;1.95;;;;;;;20.39;94.92;96731.09;4984565;28;20441;-69
2023/07/07 03:37:45;;;;;;;2.00;2.00;;;;;;;20.40;94.59;96718.59;4984711;28;20053;-69
2023/07/07 03:40:12;;;;;;;2.17;2.17;;;;;;;20.81;93.99;96746.81;4984812;28;20440;-69
2023/07/07 03:42:39;;;;;;;1.88;1.88;;;;;;;20.82;93.31;96735.09;4984774;28;20060;-69
2023/07/07 03:45:06;;;;;;;2.00;2.00;;;;;;;21.14;92.39;96759.56;4984269;28;20054;-69
2023/07/07 03:47:33;;;;;;;1.90;1.90;;;;;;;21.39;90.85;96765.25;4984457;28;20066;-69
2023/07/07 03:50:00;;;;;;;1.95;1.95;;;;;;;21.29;90.04;96743.84;4983789;28;20058;-69
2023/07/07 03:52:26;;;;;;;2.55;2.45;;;;;;;21.50;89.37;96760.09;4983642;28;20356;-68
2023/07/07 03:54:53;;;;;;;2.50;2.40;;;;;;;21.64;89.18;96764.53;4984532;28;20062;-70
2023/07/07 03:57:20;;;;;;;2.05;2.05;;;;;;;21.72;87.12;96738.47;4984142;28;20058;-69
2023/07/07 03:59:47;;;;;;;2.03;2.03;;;;;;;21.54;87.27;96698.78;4984255;28;20521;-69
2023/07/07 04:02:14;;;;;;;2.20;2.20;;;;;;;21.78;87.15;96738.75;4984281;28;20606;-69
2023/07/07 04:04:41;;;;;;;2.20;2.20;;;;;;;21.94;86.51;96750.69;4984373;28;20057;-68
2023/07/07 04:07:08;;;;;;;2.50;2.40;;;;;;;21.92;86.86;96741.91;4984062;28;20064;-70
2023/07/07 04:09:35;;;;;;;2.28;2.25;;;;;;;21.64;86.89;96697.63;4981787;28;20134;-69
2023/07/07 04:12:06;;;;;;;2.00;2.00;;;;;;;22.21;85.46;96753.81;4964604;28;20059;-67
2023/07/07 04:14:33;;;;;;;2.15;2.15;;;;;;;21.15;85.36;96589.31;4963302;28;20051;-69
2023/07/07 04:17:00;;;;;;;2.30;2.30;;;;;;;22.35;85.01;96758.97;4964391;28;20051;-69
2023/07/07 04:19:26;;;;;;;2.53;2.42;;;;;;;22.00;84.06;96686.78;4964857;28;20042;-67
2023/07/07 04:21:53;;;;;;;2.58;2.47;;;;;;;22.45;83.02;96762.69;4964957;28;20052;-68
2023/07/07 04:24:23;;;;;;;2.40;2.30;;;;;;;22.42;82.63;96724.88;4964585;28;20141;-67
2023/07/07 04:26:50;;;;;;;2.28;2.28;;;;;;;22.79;82.06;96756.31;4964689;28;20061;-67
2023/07/07 04:29:17;;;;;;;2.58;2.47;;;;;;;22.87;82.11;96766.91;4963013;28;20086;-67
2023/07/07 04:31:45;;;;;;;2.20;2.20;;;;;;;22.93;82.53;96753.75;4964726;28;20073;-68
2023/07/07 04:34:14;;;;;;;2.60;2.50;;;;;;;22.92;82.78;96731.63;4964926;28;20235;-67
2023/07/07 04:36:41;;;;;;;2.40;2.35;;;;;;;23.18;82.24;96741.53;4963818;28;20066;-69
2023/07/07 04:39:11;;;;;;;2.60;2.50;;;;;;;23.43;81.94;96753.50;4963177;28;20333;-68
2023/07/07 04:41:38;;;;;;;2.70;2.60;;;;;;;23.52;81.35;96756.38;4963979;28;20419;-68
2023/07/07 04:44:05;;;;;;;2.72;2.63;;;;;;;23.66;80.95;96763.56;4964562;28;20090;-68
2023/07/07 04:46:37;;;;;;;2.67;2.58;;;;;;;23.73;80.65;96757.59;4964192;28;20055;-69
2023/07/07 04:49:06;;;;;;;2.88;2.78;;;;;;;23.66;79.49;96726.78;4964143;28;20058;-69
2023/07/07 04:51:39;;;;;;;2.90;2.80;;;;;;;23.85;79.31;96751.09;4963988;28;20109;-67
2023/07/07 04:54:09;;;;;;;2.60;2.50;;;;;;;23.92;78.11;96723.28;4964425;28;20156;-69
2023/07/07 04:56:36;;;;;;;2.80;2.70;;;;;;;24.22;78.56;96747.16;4964328;28;20162;-65
2023/07/07 04:59:04;;;;;;;2.85;2.75;;;;;;;24.30;77.35;96730.66;4963021;28;20628;-69
2023/07/07 05:01:31;;;;;;;3.05;2.95;;;;;;;24.61;76.59;96746.28;4963916;28;20055;-69
2023/07/07 05:04:02;;;;;;;2.97;2.88;;;;;;;24.14;75.77;96677.16;4973016;28;20050;-68
2023/07/07 05:06:34;;;;;;;3.10;3.00;;;;;;;24.30;77.63;96733.47;4987119;28;20351;-69
2023/07/07 05:09:03;;;;;;;2.75;2.65;;;;;;;24.63;76.58;96723.94;4987118;28;20060;-70
2023/07/07 05:11:32;;;;;;;3.10;3.00;;;;;;;24.82;76.29;96734.06;4987050;28;20141;-69
2023/07/07 05:13:59;;;;;;;3.20;3.10;;;;;;;24.79;75.52;96684.00;4975703;28;20058;-69
2023/07/07 05:16:32;;;;;;;3.30;3.20;;;;;;;23.85;75.87;96544.53;4986870;28;20060;-68
2023/07/07 05:19:00;;;;;;;3.25;3.15;;;;;;;24.90;77.16;96745.88;4987456;28;20057;-69
2023/07/07 05:21:27;;;;;;;3.15;3.05;;;;;;;24.32;81.71;96733.81;4987067;28;20049;-69
2023/07/07 05:23:54;;;;;;;2.85;2.75;;;;;;;24.52;82.41;96754.78;4987096;28;20081;-69
2023/07/07 05:26:23;;;;;;;2.95;2.85;;;;;;;25.08;79.85;96763.69;4986987;28;20058;-69
2023/07/07 05:28:51;;;;;;;3.42;3.33;;;;;;;25.11;78.82;96767.63;5001972;28;20052;-69
2023/07/07 05:31:18;;;;;;;3.17;3.08;;;;;;;23.86;77.93;96548.94;4986975;28;20061;-69
2023/07/07 05:33:45;;;;;;;3.25;3.15;;;;;;;25.20;78.11;96762.72;4962429;28;20553;-68
2023/07/07 05:36:12;;;;;;;3.33;3.22;;;;;;;24.81;77.09;96681.50;4964934;28;20057;-69
2023/07/07 05:38:41;;;;;;;3.65;3.55;;;;;;;24.96;76.74;96716.44;4964420;28;20059;-71
2023/07/07 05:41:08;;;;;;;3.60;3.50;;;;;;;25.10;77.07;96749.81;4966534;28;20043;-64
2023/07/07 05:43:35;;;;;;;3.22;3.13;;;;;;;24.83;78.56;96741.28;4964496;28;20105;-63
2023/07/07 05:46:12;;;;;;;3.47;3.38;;;;;;;24.98;77.94;96750.75;4964763;28;20054;-61
2023/07/07 05:48:40;;;;;;;3.20;3.10;;;;;;;25.27;77.65;96787.13;4965180;28;20093;-67
2023/07/07 05:51:11;;;;;;;3.70;3.60;;;;;;;24.85;76.51;96699.09;4967069;28;20054;-66
2023/07/07 05:53:40;;;;;;;3.67;3.58;;;;;;;25.57;75.75;96789.03;4961720;28;20043;-64
2023/07/07 05:56:18;;;;;;;3.30;3.20;;;;;;;25.49;72.90;96713.22;4966902;28;20106;-67
2023/07/07 05:58:45;;;;;;;3.67;3.58;;;;;;;26.18;72.39;96787.75;4967092;28;20062;-69
2023/07/07 06:01:13;;;;;;;3.72;3.63;;;;;;;26.31;69.55;96779.81;4966032;28;20481;-68
2023/07/07 06:03:41;;;;;;;3.40;3.30;;;;;;;25.71;68.93;96708.13;4966694;28;20069;-63
2023/07/07 06:06:08;;;;;;;3.50;3.40;;;;;;;26.54;66.80;96764.88;4966168;28;20051;-65
2023/07/07 06:08:35;;;;;;;3.47;3.38;;;;;;;26.52;64.59;96694.28;4966493;28;20054;-74
2023/07/07 06:11:02;;;;;;;3.60;3.50;;;;;;;26.79;65.57;96747.38;4966868;28;20059;-71
2023/07/07 06:13:29;;;;;;;3.95;3.85;;;;;;;26.93;64.35;96718.19;4960462;28;20057;-67
2023/07/07 06:15:56;;;;;;;3.88;3.78;;;;;;;27.35;63.70;96778.53;4963887;28;20078;-65
2023/07/07 06:18:23;;;;;;;3.97;3.88;;;;;;;27.01;62.99;96668.22;4964655;28;20058;-69
2023/07/07 06:20:51;;;;;;;3.72;3.63;;;;;;;27.81;61.61;96776.00;4967120;28;20065;-66
2023/07/07 06:23:19;;;;;;;4.15;4.05;;;;;;;27.61;62.33;96721.84;4962610;28;20043;-70
2023/07/07 06:25:47;;;;;;;4.22;4.13;;;;;;;28.07;62.21;96768.50;4964704;28;20060;-67
2023/07/07 06:28:15;;;;;;;4.10;4.00;;;;;;;28.37;60.72;96749.25;4964996;28;20069;-67
2023/07/07 06:30:42;;;;;;;4.53;4.43;;;;;;;28.81;59.41;96767.03;4966849;28;20050;-63
2023/07/07 06:33:09;;;;;;;4.10;4.00;;;;;;;28.83;59.52;96770.19;4964318;28;20086;-66
2023/07/07 06:35:36;;;;;;;4.30;4.20;;;;;;;27.28;60.01;96559.88;4965011;28;20128;-68
2023/07/07 06:38:03;;;;;;;4.20;4.10;;;;;;;28.29;59.62;96656.91;4961836;28;20094;-67
2023/07/07 06:40:30;;;;;;;4.45;4.35;;;;;;;29.19;58.79;96758.22;4960780;28;20049;-65
2023/07/07 06:42:58;;;;;;;4.28;4.18;;;;;;;29.12;57.54;96701.56;4962682;28;20054;-64
2023/07/07 06:45:25;;;;;;;4.55;4.45;;;;;;;29.57;56.82;96749.31;4964129;28;20524;-64
2023/07/07 06:47:54;;;;;;;4.40;4.30;;;;;;;29.64;56.13;96754.59;4965366;28;20055;-65
2023/07/07 06:50:29;;;;;;;4.60;4.50;;;;;;;29.57;56.33;96732.19;4962755;28;20136;-65
2023/07/07 06:52:56;;;;;;;4.25;4.15;;;;;;;29.57;56.69;96777.84;4965306;28;20505;-63
2023/07/07 06:55:23;;;;;;;4.85;4.75;;;;;;;29.50;55.37;96704.84;4964709;28;20054;-68
2023/07/07 06:57:50;;;;;;;4.60;4.50;;;;;;;29.57;53.41;96680.78;4964698;28;20070;-66
2023/07/07 07:00:17;;;;;;;4.55;4.45;;;;;;;30.23;52.80;96755.69;4964564;28;20053;-64
2023/07/07 07:02:44;;;;;;;4.47;4.38;;;;;;;30.23;51.88;96761.41;4946461;28;20063;-72
2023/07/07 07:05:11;;;;;;;4.18;4.07;;;;;;;30.04;52.31;96730.81;4958539;28;20182;-63
2023/07/07 07:07:38;;;;;;;4.28;4.18;;;;;;;30.19;53.23;96743.66;4965422;28;20061;-66
2023/07/07 07:10:06;;;;;;;4.28;4.18;;;;;;;30.13;51.94;96753.50;4963422;28;20600;-63
2023/07/07 07:12:33;;;;;;;4.88;4.78;;;;;;;30.08;52.47;96732.13;4961161;28;20051;-61
2023/07/07 07:14:59;;;;;;;4.30;4.20;;;;;;;30.05;51.82;96704.56;4960806;28;20051;-66
2023/07/07 07:17:26;;;;;;;4.28;4.18;;;;;;;30.34;51.60;96761.47;4964553;28;20077;-67
2023/07/07 07:19:53;;;;;;;4.20;4.10;;;;;;;29.91;50.86;96714.06;4964643;28;20047;-68
2023/07/07 07:22:20;;;;;;;3.95;3.85;;;;;;;30.37;50.46;96754.75;4963127;28;20816;-64
2023/07/07 07:24:47;;;;;;;4.85;4.75;;;;;;;30.31;48.75;96742.50;4965088;28;20082;-67
2023/07/07 07:27:14;;;;;;;4.40;4.30;;;;;;;30.38;48.27;96773.44;4965115;28;20047;-71
2023/07/07 07:29:43;;;;;;;4.50;4.40;;;;;;;30.45;47.86;96761.56;4959092;28;20078;-67
2023/07/07 07:32:10;;;;;;;4.28;4.18;;;;;;;30.32;48.28;96743.28;4963972;28;20050;-68
2023/07/07 07:34:37;;;;;;;4.40;4.30;;;;;;;30.42;48.17;96762.59;4963359;28;20054;-67
2023/07/07 07:37:05;;;;;;;4.50;4.40;;;;;;;29.98;48.39;96750.78;4961187;28;20063;-63
2023/07/07 07:39:32;;;;;;;4.10;4.00;;;;;;;29.97;48.86;96754.91;4965260;28;20509;-63
2023/07/07 07:41:59;;;;;;;4.30;4.20;;;;;;;29.23;50.37;96690.28;4964714;28;20595;-63
2023/07/07 07:44:26;;;;;;;4.45;4.35;;;;;;;29.20;51.09;96674.16;4961544;28;20947;-61
2023/07/07 07:46:58;;;;;;;3.90;3.80;;;;;;;29.80;50.97;96753.22;4960283;28;20054;-64
2023/07/07 07:49:26;;;;;;;4.40;4.30;;;;;;;29.97;50.26;96766.31;4962560;28;20055;-64
2023/07/07 07:51:53;;;;;;;4.18;4.07;;;;;;;29.94;49.85;96755.91;4952609;28;20046;-67
2023/07/07 07:54:22;;;;;;;4.22;4.13;;;;;;;29.59;49.71;96766.72;4964927;28;20077;-64
2023/07/07 07:56:49;;;;;;;4.30;4.20;;;;;;;29.50;49.95;96692.66;4964778;28;20676;-64
2023/07/07 07:59:16;;;;;;;4.25;4.15;;;;;;;29.97;49.20;96772.03;4954454;28;20059;-69
2023/07/07 08:01:43;;;;;;;4.72;4.63;;;;;;;30.06;47.80;96759.66;4959006;28;20055;-63
2023/07/07 08:04:10;;;;;;;4.25;4.15;;;;;;;29.81;48.75;96766.97;4974756;28;20105;-64
2023/07/07 08:06:37;;;;;;;4.10;4.00;;;;;;;29.67;48.63;96770.72;4963528;28;20544;-63
2023/07/07 08:09:03;;;;;;;3.90;3.80;;;;;;;29.71;49.58;96771.28;4961742;28;20055;-63
2023/07/07 08:11:42;;;;;;;4.53;4.43;;;;;;;30.11;48.18;96771.16;4962876;28;20051;-63
2023/07/07 08:14:21;;;;;;;4.13;4.03;;;;;;;30.30;47.20;96749.50;4960428;28;20149;-69
2023/07/07 08:16:51;;;;;;;4.28;4.18;;;;;;;30.68;47.96;96771.06;4964645;28;20050;-64
2023/07/07 08:19:18;;;;;;;4.18;4.07;;;;;;;29.28;47.02;96698.13;4963919;28;20141;-64
2023/07/07 08:21:46;;;;;;;4.30;4.20;;;;;;;30.36;46.20;96764.63;4950597;28;20138;-63
2023/07/07 08:24:14;;;;;;;4.60;4.50;;;;;;;30.72;46.12;96775.25;4961646;28;20512;-65
2023/07/07 08:26:41;;;;;;;4.72;4.63;;;;;;;30.91;45.25;96759.28;4946754;28;20054;-66
2023/07/07 08:29:09;;;;;;;4.30;4.20;;;;;;;31.31;44.92;96771.69;4962749;28;20149;-67
2023/07/07 08:31:50;;;;;;;3.95;3.85;;;;;;;29.92;45.82;96741.38;4962696;28;20047;-67
2023/07/07 08:34:18;;;;;;;4.53;4.43;;;;;;;30.28;45.68;96768.44;4964115;28;20061;-64
2023/07/07 08:36:45;;;;;;;4.27;4.17;;;;;;;30.34;44.98;96777.84;4963202;28;20565;-67
2023/07/07 08:39:15;;;;;;;4.43;4.32;;;;;;;31.03;45.83;96771.53;4966062;28;20566;-64
2023/07/07 08:41:48;;;;;;;4.20;4.10;;;;;;;30.64;43.58;96774.16;4966172;28;20046;-65
2023/07/07 08:44:18;;;;;;;4.45;4.35;;;;;;;30.95;44.40;96771.25;4980616;28;20536;-62
2023/07/07 08:47:00;;;;;;;4.57;4.47;;;;;;;31.42;42.82;96745.97;4975999;28;20516;-71
2023/07/07 08:49:53;;;;;;;4.55;4.45;;;;;;;31.93;41.92;96779.97;4968158;28;20046;-66
2023/07/07 08:52:34;;;;;;;5.20;5.10;;;;;;;31.46;42.04;96741.56;4969726;28;20054;-67
2023/07/07 08:55:17;;;;;;;4.38;4.28;;;;;;;31.68;43.00;96755.94;4966885;28;20462;-62
2023/07/07 08:57:54;;;;;;;4.55;4.45;;;;;;;31.31;43.55;96757.38;4971854;28;20489;-61
2023/07/07 09:00:39;;;;;;;4.72;4.63;;;;;;;32.06;42.52;96754.44;4967229;28;20058;-68
2023/07/07 09:03:12;;;;;;;4.60;4.50;;;;;;;32.39;41.31;96748.72;4964320;28;20142;-62
2023/07/07 09:06:02;;;;;;;5.18;5.07;;;;;;;32.38;40.46;96747.16;4967065;28;20051;-63
2023/07/07 09:08:50;;;;;;;4.40;4.30;;;;;;;32.14;41.30;96750.53;4967442;28;20064;-65
2023/07/07 09:11:47;;;;;;;4.70;4.60;;;;;;;31.62;40.96;96737.16;4967633;28;20062;-68
2023/07/07 09:14:14;;;;;;;4.78;4.68;;;;;;;31.95;41.83;96725.75;4967542;28;20518;-62
2023/07/07 09:16:44;;;;;;;4.43;4.32;;;;;;;32.75;39.36;96749.72;4963962;28;20054;-65
2023/07/07 09:19:19;;;;;;;4.63;4.53;;;;;;;32.91;39.47;96749.69;4965681;28;20133;-68
2023/07/07 09:21:55;;;;;;;4.80;4.70;;;;;;;33.41;39.17;96753.19;4964487;28;20050;-68
2023/07/07 09:24:52;;;;;;;5.63;5.43;;;;;;;32.94;39.25;96570.69;4980616;28;20054;-69
2023/07/07 09:27:28;;;;;;;4.97;4.88;;;;;;;34.10;39.35;96741.53;4972827;28;20055;-64
2023/07/07 09:30:10;;;;;;;5.35;5.25;;;;;;;33.82;38.95;96715.03;4962430;28;20047;-67
2023/07/07 09:32:37;;;;;;;4.80;4.70;;;;;;;34.29;38.30;96739.56;4963725;28;20081;-66
2023/07/07 09:35:04;;;;;;;4.50;4.40;;;;;;;32.94;39.08;96724.91;4962212;28;20134;-66
2023/07/07 09:37:42;;;;;;;4.55;4.45;;;;;;;31.70;39.99;96561.38;4947649;28;20387;-70
2023/07/07 09:40:17;;;;;;;4.80;4.70;;;;;;;32.00;40.12;96733.59;4961452;28;20298;-64
2023/07/07 09:43:03;;;;;;;4.60;4.50;;;;;;;31.91;41.35;96728.13;4979569;28;20055;-64
2023/07/07 09:45:59;;;;;;;4.55;4.45;;;;;;;31.27;43.53;96736.78;4966252;28;20059;-67
2023/07/07 09:48:31;;;;;;;4.78;4.68;;;;;;;30.75;42.88;96736.25;4966436;28;20057;-64
2023/07/07 09:51:04;;;;;;;4.25;4.15;;;;;;;30.48;44.59;96737.66;4965823;28;20062;-68
2023/07/07 09:53:36;;;;;;;4.18;4.07;;;;;;;30.17;43.39;96729.09;4967483;28;20047;-64
2023/07/07 09:56:20;;;;;;;4.57;4.47;;;;;;;29.91;44.63;96716.94;4966337;28;20055;-66
2023/07/07 09:59:06;;;;;;;4.10;4.00;;;;;;;29.59;44.95;96718.19;4965844;28;20059;-66
2023/07/07 10:01:37;;;;;;;4.55;4.45;;;;;;;30.13;44.40;96762.84;4967344;28;20074;-63
2023/07/07 10:04:12;;;;;;;4.63;4.53;;;;;;;30.33;42.61;96725.63;4967382;28;20456;-67
2023/07/07 10:06:50;;;;;;;4.30;4.20;;;;;;;30.93;42.18;96739.53;4962204;28;20059;-63
2023/07/07 10:09:17;;;;;;;4.50;4.40;;;;;;;30.62;42.79;96702.38;4947680;28;20063;-67
2023/07/07 10:11:45;;;;;;;4.45;4.35;;;;;;;31.14;43.33;96662.06;4946217;29;20062;-65
2023/07/07 10:14:16;;;;;;;4.53;4.43;;;;;;;31.83;44.05;96761.41;4948189;28;20715;-64
2023/07/07 10:17:08;;;;;;;4.50;4.40;;;;;;;31.76;45.86;96744.72;4947644;28;20175;-64
2023/07/07 10:19:42;;;;;;;4.32;4.22;;;;;;;31.28;46.27;96730.56;4947426;28;20051;-65
2023/07/07 10:22:14;;;;;;;4.25;4.15;;;;;;;31.00;48.04;96738.22;4947465;29;20055;-67
2023/07/07 10:24:42;;;;;;;4.47;4.38;;;;;;;30.66;46.66;96628.59;4947264;28;20051;-67
2023/07/07 10:27:12;;;;;;;4.45;4.35;;;;;;;31.36;48.45;96702.22;4957654;28;20043;-69
2023/07/07 10:29:42;;;;;;;4.53;4.43;;;;;;;31.79;48.02;96720.78;4964323;28;20051;-61
2023/07/07 10:32:16;;;;;;;4.30;4.20;;;;;;;32.30;45.31;96720.28;4965154;28;20097;-64
2023/07/07 10:34:52;;;;;;;4.32;4.22;;;;;;;32.33;46.19;96673.34;4965411;28;20057;-67
2023/07/07 10:37:26;;;;;;;4.70;4.60;;;;;;;32.89;43.54;96700.66;4960868;28;20073;-63
2023/07/07 10:39:55;;;;;;;4.72;4.63;;;;;;;33.32;43.45;96715.34;4964136;28;20065;-61
2023/07/07 10:42:24;;;;;;;4.78;4.68;;;;;;;33.45;42.35;96707.72;4965027;28;20101;-63
2023/07/07 10:44:51;;;;;;;4.53;4.43;;;;;;;33.61;42.14;96709.72;4965090;28;20589;-63
2023/07/07 10:47:21;;;;;;;4.70;4.60;;;;;;;33.22;42.34;96657.44;4961984;28;20047;-68
2023/07/07 10:49:49;;;;;;;4.47;4.38;;;;;;;33.18;40.88;96648.31;4960773;28;20109;-66
2023/07/07 10:53:01;;;;;;;4.97;4.88;;;;;;;33.55;41.29;96711.84;4965745;28;20093;-72
2023/07/07 10:55:49;;;;;;;;;;;;;;;33.28;40.06;96709.09;4948123;29;20082;-65
2023/07/07 10:58:15;;;;;;;4.63;4.53;;;;;;;32.36;41.23;96703.84;4946795;28;20218;-66
2023/07/07 11:01:00;;;;;;;5.05;4.95;;;;;;;32.37;41.42;96696.84;4946095;28;20276;-65
2023/07/07 11:03:33;;;;;;;4.15;4.05;;;;;;;31.13;42.46;96694.81;4947293;28;20134;-64
2023/07/07 11:06:04;;;;;;;4.68;4.57;;;;;;;30.90;42.85;96662.50;4963852;28;20741;-62
2023/07/07 11:09:09;;;;;;;4.70;4.60;;;;;;;30.69;43.85;96684.75;4965016;28;20085;-62
2023/07/07 11:11:38;;;;;;;4.25;4.15;;;;;;;30.83;43.31;96683.81;4966045;28;20094;-68
2023/07/07 11:14:32;;;;;;;4.63;4.53;;;;;;;31.16;41.57;96686.00;4965985;28;20053;-68
2023/07/07 11:17:36;;;;;;;4.93;4.82;;;;;;;31.62;41.81;96685.59;4962297;28;20046;-65
2023/07/07 11:20:21;;;;;;;4.68;4.57;;;;;;;32.06;42.44;96697.09;4965936;28;20509;-67
2023/07/07 11:23:07;;;;;;;4.32;4.22;;;;;;;31.80;42.53;96697.34;4964747;28;20067;-68
2023/07/07 11:25:49;;;;;;;4.90;4.80;;;;;;;30.76;43.78;96578.44;4961157;28;20055;-71
2023/07/07 11:28:32;;;;;;;4.50;4.40;;;;;;;30.59;43.43;96563.28;4960693;28;20074;-68
2023/07/07 11:31:02;;;;;;;;;;;;;;;31.77;43.50;96692.66;4946343;28;20533;-62
2023/07/07 11:33:35;;;;;;;4.40;4.30;;;;;;;31.68;44.59;96683.53;4955654;28;20329;-65
2023/07/07 11:36:34;;;;;;;4.30;4.20;;;;;;;31.22;43.35;96666.75;4961251;28;20054;-69
2023/07/07 11:39:10;;;;;;;4.93;4.82;;;;;;;31.14;42.09;96559.81;4945917;29;20050;-62
2023/07/07 11:41:50;;;;;;;4.85;4.75;;;;;;;31.91;41.33;96673.66;4944593;28;20145;-69
2023/07/07 11:44:35;;;;;;;4.53;4.43;;;;;;;31.35;41.64;96675.66;4963051;28;20682;-65
2023/07/07 11:47:41;;;;;;;4.45;4.35;;;;;;;31.18;41.76;96671.16;4963199;28;20062;-64
2023/07/07 11:51:02;;;;;;;4.60;4.50;;;;;;;30.70;43.26;96674.88;4961688;28;20050;-66
2023/07/07 11:53:47;;;;;;;4.22;4.13;;;;;;;31.03;41.75;96679.19;4961615;28;20145;-65
2023/07/07 11:56:29;;;;;;;4.43;4.32;;;;;;;30.99;40.14;96685.16;4962107;28;20156;-64